Pleasant Valley (Parma), OH

9:53 AM EDT on March 30, 2017 (GMT -0400)
Parma, Ohio | | Change Station

Elev 1120 ft 41.37 °N, 81.70 °W | Updated 6 minutes ago

Rain
Rain
44.2 °F
Feels Like 40 °F
N
7.0
Wind Variable Wind from East
Gusts 13.0 mph

Today
High -- | Low -- °F
--% Chance of Precip.
Yesterday
High -- | Low -- °F
Precip. -- in
Pressure 29.98 in
Visibility 10.0 miles
Clouds Overcast 6000 ft
Windchill 40 °F
Dew Point 34 °F
Humidity 68%
Rainfall 0.07 in
Snow Depth Not available.
7:12 AM 7:50 PM
Waxing Crescent, 8% visible
SPECI KCLE 301336Z COR 07012KT 10SM -TSRA OVC060CB 08/01 A2998 RMK AO2 RAB26 TSB36 OCNL LTGICCCCG SW TS SW MOV E P0000 T00830006
Pressure 29.98 in
Visibility 10.0 miles
Clouds Overcast 6000 ft
Windchill 40 °F
Dew Point 34 °F
Humidity 68%
Rainfall 0.07 in
Snow Depth Not available.
7:12 AM 7:50 PM
Waxing Crescent, 8% visible
SPECI KCLE 301336Z COR 07012KT 10SM -TSRA OVC060CB 08/01 A2998 RMK AO2 RAB26 TSB36 OCNL LTGICCCCG SW TS SW MOV E P0000 T00830006

Get Severe Weather Alerts

Thanks for signing up!

Be on the lookout for a verification email in your inbox.

You'll start receiving the daily forecast at 8 AM.

×

10-Day Weather Forecast

Almanac

Astronomy

Mar. 30, 2017 Rise Set
Actual Time
Civil Twilight
Nautical Twilight
Astronomical Twilight
Moon
Length of Visible Light
Length of Day
Tomorrow will be .
, % of the Moon is Illuminated

Today's Extremes

State Highs State Lows

Community

WunderPhotos

Upload Photos

1,962,540 photos uploaded!

WunderBlog® & News

Nearby

Air Quality

  Air Quality AQ Index Pollutant
Not available.

Snow Depth

Station Depth Elevation

Earthquake Activity

City Distance Mag. Time & Date
Minimum magnitude displayed is 2.5.

Earthquake Activity

City Distance Mag. Time & Date
Minimum magnitude displayed is 2.5.

Coastal Water Temperatures

Place Temperature

Stations

Nearby Weather Stations

Station Location Temp. Windchill Dew Point Humidity Wind Precip. Elev Updated Type
                   

Watches & Warnings

There are currently no watches in effect.